Maryus, Virginia
Current Conditions -  °F | °C
As of 6:54 PM on Saturday 25 Oct 2014 (Local Time) from KPHF Reporting Station
Clear Clear  
Wind Chill: 62°   Ceiling: Unl
Heat Index: 62°   Visibility: 10mi
Dew Point: 44°   Wind: 7mph
Humidity: 52%   Direction: 240°WSW
Pressure: 29.84"   Gusts: NA
Location:  37.28°N, 76.4°W
Report Text: KPHF 252254Z 24006KT 10SM CLR 17/07 A2984 RMK AO2 SLP104 T01670067
Loading
Personal Weather Stations






























Interactive Weather Map
Tropical Storm Tracking
New forecast layout! Learn more

10-Day Weather Forecast

Advertisements
Track Severe Weather on mobile